createdAt,value
2023-05-05T00:02:15.602Z,51.88
2023-05-05T00:04:42.205Z,52.19
2023-05-05T00:07:08.819Z,51.94
2023-05-05T00:09:35.244Z,52.15
2023-05-05T00:12:01.679Z,52.06
2023-05-05T00:14:28.104Z,52.45
2023-05-05T00:16:54.530Z,52.55
2023-05-05T00:19:21.056Z,52.86
2023-05-05T00:21:47.490Z,53.39
2023-05-05T00:24:13.921Z,53.77
2023-05-05T00:26:40.326Z,54.32
2023-05-05T00:29:06.738Z,54.65
2023-05-05T00:31:33.376Z,54.96
2023-05-05T00:33:59.852Z,54.86
2023-05-05T00:36:26.213Z,55.00
2023-05-05T00:38:52.681Z,53.85
2023-05-05T00:41:19.166Z,53.90
2023-05-05T00:43:45.609Z,54.08
2023-05-05T00:46:24.357Z,54.83
2023-05-05T00:48:51.588Z,55.32
2023-05-05T00:51:20.525Z,55.38
2023-05-05T00:53:48.235Z,56.40
2023-05-05T00:56:16.713Z,56.89
2023-05-05T00:58:44.160Z,57.47
2023-05-05T01:01:11.567Z,58.30
2023-05-05T01:03:39.394Z,59.00
2023-05-05T01:06:21.124Z,59.53
2023-05-05T01:09:20.160Z,60.34
2023-05-05T01:12:31.809Z,60.52
2023-05-05T01:15:31.575Z,60.48
2023-05-05T01:18:38.916Z,60.77
2023-05-05T01:21:45.752Z,60.70
2023-05-05T01:24:37.172Z,60.99
2023-05-05T01:27:13.368Z,61.00
2023-05-05T01:29:49.243Z,60.71
2023-05-05T01:32:21.892Z,60.90
2023-05-05T01:34:56.266Z,60.98
2023-05-05T01:37:27.736Z,60.72
2023-05-05T01:39:59.173Z,60.84
2023-05-05T01:42:28.183Z,60.93
2023-05-05T01:44:56.793Z,61.04
2023-05-05T01:47:23.935Z,60.55
2023-05-05T01:49:52.735Z,61.05
2023-05-05T01:52:19.642Z,61.00
2023-05-05T01:54:49.189Z,61.38
2023-05-05T01:57:16.850Z,61.45
2023-05-05T01:59:43.451Z,61.36
2023-05-05T02:02:12.050Z,61.25
2023-05-05T02:04:43.487Z,61.22
2023-05-05T02:07:12.560Z,61.21
2023-05-05T02:09:40.626Z,61.24
2023-05-05T02:12:08.252Z,60.93
2023-05-05T02:14:35.836Z,61.43
2023-05-05T02:17:03.938Z,61.30
2023-05-05T02:19:34.351Z,61.05
2023-05-05T02:22:00.877Z,61.59
2023-05-05T02:24:27.350Z,61.46
2023-05-05T02:26:56.341Z,61.99
2023-05-05T02:29:44.582Z,62.11
2023-05-05T02:32:16.803Z,62.75
2023-05-05T02:34:46.309Z,62.39
2023-05-05T02:37:19.763Z,62.99
2023-05-05T02:39:58.526Z,62.85
2023-05-05T02:42:32.086Z,63.54
2023-05-05T02:45:15.385Z,63.44
2023-05-05T02:47:45.183Z,63.26
2023-05-05T02:50:11.928Z,63.68
2023-05-05T02:52:45.763Z,63.48
2023-05-05T02:55:13.823Z,63.63
2023-05-05T02:57:48.607Z,63.89
2023-05-05T03:00:36.186Z,63.79
2023-05-05T03:03:24.657Z,64.18
2023-05-05T03:06:12.847Z,64.52
2023-05-05T03:08:49.683Z,64.47
2023-05-05T03:11:25.607Z,64.77
2023-05-05T03:14:05.397Z,64.53
2023-05-05T03:16:35.019Z,64.50
2023-05-05T03:19:03.524Z,64.65
2023-05-05T03:21:32.429Z,64.81
2023-05-05T03:23:59.257Z,64.87
2023-05-05T03:26:25.680Z,64.61
2023-05-05T03:28:52.075Z,64.87
2023-05-05T03:31:24.165Z,64.58
2023-05-05T03:33:54.733Z,64.97
2023-05-05T03:36:25.083Z,64.85
2023-05-05T03:38:52.948Z,64.78
2023-05-05T03:41:22.578Z,65.28
2023-05-05T03:43:50.759Z,64.92
2023-05-05T03:46:17.702Z,64.92
2023-05-05T03:48:44.217Z,65.09
2023-05-05T03:51:12.675Z,64.98
2023-05-05T03:53:39.670Z,65.28
2023-05-05T03:56:07.257Z,65.50
2023-05-05T03:58:33.707Z,65.69
2023-05-05T04:01:00.464Z,65.75
2023-05-05T04:03:27.139Z,65.73
2023-05-05T04:05:53.784Z,65.63
2023-05-05T04:08:21.518Z,66.01
2023-05-05T04:10:48.138Z,65.67
2023-05-05T04:13:15.348Z,65.99
2023-05-05T04:15:46.470Z,66.12
2023-05-05T04:18:14.209Z,65.82
2023-05-05T04:20:40.955Z,66.04
2023-05-05T04:23:08.621Z,66.06
2023-05-05T04:25:35.708Z,66.23
2023-05-05T04:28:02.785Z,66.11
2023-05-05T04:30:30.764Z,66.25
2023-05-05T04:32:57.244Z,66.31
2023-05-05T04:35:24.210Z,65.99
2023-05-05T04:37:53.391Z,66.53
2023-05-05T04:40:20.273Z,66.64
2023-05-05T04:42:47.191Z,66.29
2023-05-05T04:45:13.839Z,66.34
2023-05-05T04:47:41.109Z,66.38
2023-05-05T04:50:08.748Z,66.39
2023-05-05T04:52:35.575Z,66.38
2023-05-05T04:55:02.514Z,66.86
2023-05-05T04:57:29.653Z,66.53
2023-05-05T04:59:57.216Z,66.72
2023-05-05T05:02:23.720Z,66.33
2023-05-05T05:04:50.161Z,66.25
2023-05-05T05:07:16.642Z,65.94
2023-05-05T05:09:43.160Z,66.08
2023-05-05T05:12:09.677Z,65.74
2023-05-05T05:14:37.788Z,65.11
2023-05-05T05:17:04.928Z,65.16
2023-05-05T05:19:32.762Z,65.25
2023-05-05T05:21:59.357Z,64.43
2023-05-05T05:24:26.452Z,63.95
2023-05-05T05:26:53.610Z,63.61
2023-05-05T05:29:20.432Z,63.93
2023-05-05T05:31:48.278Z,64.24
2023-05-05T05:34:14.761Z,64.15
2023-05-05T05:36:41.902Z,64.71
2023-05-05T05:39:08.532Z,64.27
2023-05-05T05:41:35.088Z,63.85
2023-05-05T05:44:01.635Z,64.27
2023-05-05T05:46:29.029Z,63.82
2023-05-05T05:48:55.489Z,64.07
2023-05-05T05:51:22.257Z,64.37
2023-05-05T05:53:49.265Z,64.45
2023-05-05T05:56:15.864Z,64.64
2023-05-05T05:58:42.734Z,64.66
2023-05-05T06:01:09.813Z,64.77
2023-05-05T06:03:36.430Z,64.25
2023-05-05T06:06:03.153Z,63.98
2023-05-05T06:08:29.646Z,63.12
2023-05-05T06:10:57.132Z,62.43
2023-05-05T06:13:23.627Z,62.00
2023-05-05T06:15:52.231Z,61.29
2023-05-05T06:18:19.992Z,61.34
2023-05-05T06:20:49.758Z,60.53
2023-05-05T06:23:17.064Z,60.51
2023-05-05T06:25:48.726Z,60.25
2023-05-05T06:28:15.291Z,59.63
2023-05-05T06:30:41.740Z,59.31
2023-05-05T06:33:08.128Z,58.90
2023-05-05T06:35:34.628Z,58.97
2023-05-05T06:38:01.082Z,59.17
2023-05-05T06:40:27.543Z,58.92
2023-05-05T06:42:54.012Z,58.44
2023-05-05T06:45:25.853Z,58.39
2023-05-05T06:47:52.535Z,58.30
2023-05-05T06:50:19.712Z,57.85
2023-05-05T06:52:46.109Z,58.26
2023-05-05T06:55:12.634Z,58.36
2023-05-05T06:57:39.119Z,58.28
2023-05-05T07:00:06.225Z,58.47
2023-05-05T07:02:33.669Z,57.93
2023-05-05T07:05:00.236Z,57.88
2023-05-05T07:07:26.888Z,58.32
2023-05-05T07:09:53.371Z,58.11
2023-05-05T07:12:19.808Z,57.99
2023-05-05T07:14:46.786Z,57.78
2023-05-05T07:17:13.246Z,57.82
2023-05-05T07:19:39.629Z,57.66
2023-05-05T07:22:06.280Z,57.43
2023-05-05T07:24:32.797Z,57.26
2023-05-05T07:26:59.337Z,56.83
2023-05-05T07:29:25.769Z,56.93
2023-05-05T07:31:52.287Z,56.52
2023-05-05T07:34:18.750Z,56.07
2023-05-05T07:36:45.228Z,56.04
2023-05-05T07:39:14.793Z,56.37
2023-05-05T07:41:42.424Z,55.83
2023-05-05T07:44:08.928Z,55.56
2023-05-05T07:46:35.471Z,55.68
2023-05-05T07:49:01.989Z,55.29
2023-05-05T07:51:28.436Z,55.70
2023-05-05T07:53:55.660Z,55.78
2023-05-05T07:56:22.029Z,55.25
2023-05-05T07:58:48.423Z,54.79
2023-05-05T08:01:14.801Z,55.51
2023-05-05T08:03:41.599Z,55.62
2023-05-05T08:06:12.018Z,55.36
2023-05-05T08:08:38.435Z,55.66
2023-05-05T08:11:06.433Z,55.88
2023-05-05T08:13:33.036Z,55.78
2023-05-05T08:15:59.550Z,55.65
2023-05-05T08:18:26.526Z,55.30
2023-05-05T08:20:54.475Z,55.04
2023-05-05T08:23:21.524Z,55.00
2023-05-05T08:25:47.943Z,55.10
2023-05-05T08:28:14.352Z,55.03
2023-05-05T08:30:41.054Z,55.10
2023-05-05T08:33:07.489Z,55.21
2023-05-05T08:35:33.987Z,55.04
2023-05-05T08:38:00.397Z,54.67
2023-05-05T08:40:34.053Z,55.10
2023-05-05T08:43:01.373Z,54.70
2023-05-05T08:45:31.877Z,54.46
2023-05-05T08:48:01.593Z,53.90
2023-05-05T08:50:29.487Z,54.12
2023-05-05T08:53:12.792Z,54.16
2023-05-05T08:55:50.556Z,54.04
2023-05-05T08:58:18.651Z,53.26
2023-05-05T09:00:46.638Z,53.09
2023-05-05T09:03:13.386Z,52.70
2023-05-05T09:05:42.770Z,52.86
2023-05-05T09:08:10.984Z,52.82
2023-05-05T09:10:41.430Z,53.66
2023-05-05T09:13:07.981Z,55.07
2023-05-05T09:15:34.742Z,54.32
2023-05-05T09:18:01.756Z,52.80
2023-05-05T09:20:35.951Z,53.02
2023-05-05T09:23:09.563Z,53.21
2023-05-05T09:25:36.197Z,52.95
2023-05-05T09:28:10.379Z,53.65
2023-05-05T09:30:37.367Z,53.94
2023-05-05T09:33:04.351Z,52.96
2023-05-05T09:35:51.305Z,52.96
2023-05-05T09:38:19.003Z,52.88
2023-05-05T09:40:50.200Z,52.52
2023-05-05T09:43:17.936Z,52.78
2023-05-05T09:45:44.809Z,53.26
2023-05-05T09:48:28.559Z,53.41
2023-05-05T09:50:56.120Z,53.32
2023-05-05T09:53:23.977Z,53.29
2023-05-05T09:55:54.595Z,53.50
2023-05-05T09:58:23.895Z,53.40
2023-05-05T10:00:50.953Z,53.33
2023-05-05T10:03:17.589Z,53.02
2023-05-05T10:05:55.699Z,53.36
2023-05-05T10:08:24.922Z,53.66
2023-05-05T10:11:00.472Z,54.57
2023-05-05T10:13:27.888Z,55.31
2023-05-05T10:15:56.153Z,56.14
2023-05-05T10:18:28.088Z,57.18
2023-05-05T10:20:58.865Z,57.85
2023-05-05T10:23:54.384Z,58.74
2023-05-05T10:26:23.000Z,59.59
2023-05-05T10:28:56.624Z,60.05
2023-05-05T10:31:26.965Z,60.40
2023-05-05T10:34:00.423Z,60.16
2023-05-05T10:36:27.804Z,60.21
2023-05-05T10:38:58.870Z,60.19
2023-05-05T10:41:28.643Z,59.91
2023-05-05T10:43:57.147Z,59.63
2023-05-05T10:46:28.107Z,59.54
2023-05-05T10:49:13.098Z,59.59
2023-05-05T10:51:41.034Z,59.94
2023-05-05T10:54:17.073Z,60.60
2023-05-05T10:56:43.776Z,60.38
2023-05-05T10:59:38.340Z,60.40
2023-05-05T11:02:28.442Z,60.47
2023-05-05T11:05:17.384Z,60.28
2023-05-05T11:07:46.008Z,59.43
2023-05-05T11:10:14.272Z,59.56
2023-05-05T11:12:57.741Z,59.80
2023-05-05T11:15:27.340Z,59.46
2023-05-05T11:17:55.647Z,59.56
2023-05-05T11:20:39.334Z,59.26
2023-05-05T11:23:05.683Z,59.46
2023-05-05T11:25:35.326Z,59.73
2023-05-05T11:28:17.214Z,60.02
2023-05-05T11:30:56.704Z,60.54
2023-05-05T11:33:38.088Z,60.39
2023-05-05T11:36:07.278Z,61.16
2023-05-05T11:39:01.268Z,61.38
2023-05-05T11:41:44.951Z,61.60
2023-05-05T11:44:13.529Z,61.70
2023-05-05T11:46:41.568Z,62.31
2023-05-05T11:49:09.166Z,62.32
2023-05-05T11:51:35.683Z,63.00
2023-05-05T11:54:02.147Z,62.98
2023-05-05T11:56:28.533Z,63.90
2023-05-05T11:59:11.053Z,63.89
2023-05-05T12:01:41.546Z,64.33
2023-05-05T12:04:12.039Z,64.52
2023-05-05T12:06:39.414Z,65.63
2023-05-05T12:09:20.516Z,66.34
2023-05-05T12:11:53.911Z,67.13
2023-05-05T12:14:20.893Z,67.76
2023-05-05T12:16:57.186Z,68.37
2023-05-05T12:19:24.185Z,68.52
2023-05-05T12:21:50.695Z,69.21
2023-05-05T12:24:17.099Z,69.37
2023-05-05T12:26:43.611Z,69.78
2023-05-05T12:29:10.060Z,69.92
2023-05-05T12:31:42.634Z,70.52
2023-05-05T12:34:10.393Z,70.45
2023-05-05T12:36:37.492Z,70.94
2023-05-05T12:39:08.118Z,70.75
2023-05-05T12:41:34.939Z,71.08
2023-05-05T12:44:02.995Z,71.37
2023-05-05T12:46:30.933Z,71.61
2023-05-05T12:49:04.823Z,71.67
2023-05-05T12:51:32.402Z,71.99
2023-05-05T12:54:04.862Z,72.11
2023-05-05T12:56:38.673Z,72.48
2023-05-05T12:59:07.631Z,72.66
2023-05-05T13:01:57.328Z,72.40
2023-05-05T13:04:28.091Z,72.40
2023-05-05T13:07:12.180Z,72.71
2023-05-05T13:09:38.884Z,73.50
2023-05-05T13:12:07.057Z,73.91
2023-05-05T13:14:34.733Z,73.79
2023-05-05T13:17:01.180Z,74.06
2023-05-05T13:19:27.775Z,74.08
2023-05-05T13:21:55.380Z,74.30
2023-05-05T13:24:31.631Z,74.05
2023-05-05T13:27:05.440Z,74.55
2023-05-05T13:29:32.410Z,74.51
2023-05-05T13:31:58.925Z,75.08
2023-05-05T13:34:25.609Z,75.05
2023-05-05T13:36:52.207Z,75.40
2023-05-05T13:39:18.657Z,75.44
2023-05-05T13:41:45.370Z,75.36
2023-05-05T13:44:12.226Z,75.28
2023-05-05T13:46:38.637Z,75.17
2023-05-05T13:49:05.143Z,75.52
2023-05-05T13:51:31.587Z,75.98
2023-05-05T13:53:58.010Z,75.77
2023-05-05T13:56:26.245Z,75.42
2023-05-05T13:58:52.787Z,75.50
2023-05-05T14:01:19.313Z,75.30
2023-05-05T14:03:45.827Z,74.87
2023-05-05T14:06:12.331Z,74.36
2023-05-05T14:08:38.718Z,74.51
2023-05-05T14:11:05.213Z,74.85
2023-05-05T14:13:31.632Z,74.46
2023-05-05T14:15:58.384Z,74.57
2023-05-05T14:18:25.530Z,74.72
2023-05-05T14:20:51.952Z,74.61
2023-05-05T14:23:19.360Z,74.85
2023-05-05T14:25:45.882Z,75.05
2023-05-05T14:28:12.287Z,74.76
2023-05-05T14:30:39.462Z,74.77
2023-05-05T14:33:05.935Z,75.05
2023-05-05T14:35:32.429Z,74.80
2023-05-05T14:37:58.869Z,74.92
2023-05-05T14:40:25.332Z,75.22
2023-05-05T14:42:51.767Z,74.85
2023-05-05T14:45:18.179Z,74.67
2023-05-05T14:47:44.807Z,74.68
2023-05-05T14:50:11.272Z,74.70
2023-05-05T14:52:39.236Z,74.55
2023-05-05T14:55:07.057Z,74.67
2023-05-05T14:57:33.702Z,74.56
2023-05-05T15:00:00.142Z,73.97
2023-05-05T15:02:26.793Z,74.01
2023-05-05T15:04:53.319Z,74.01
2023-05-05T15:07:20.475Z,74.11
2023-05-05T15:09:46.910Z,74.09
2023-05-05T15:12:13.354Z,73.70
2023-05-05T15:14:39.895Z,73.64
2023-05-05T15:17:06.515Z,73.22
2023-05-05T15:19:32.975Z,73.37
2023-05-05T15:21:59.437Z,73.39
2023-05-05T15:24:26.205Z,73.00
2023-05-05T15:26:52.636Z,72.41
2023-05-05T15:29:19.140Z,72.20
2023-05-05T15:31:45.655Z,71.55
2023-05-05T15:34:12.141Z,71.61
2023-05-05T15:36:38.583Z,71.79
2023-05-05T15:39:05.081Z,71.43
2023-05-05T15:41:34.165Z,71.04
2023-05-05T15:44:02.068Z,70.73
2023-05-05T15:46:33.213Z,70.49
2023-05-05T15:48:59.918Z,70.52
2023-05-05T15:51:26.420Z,70.01
2023-05-05T15:53:53.321Z,70.45
2023-05-05T15:56:19.845Z,70.49
2023-05-05T15:58:46.395Z,70.57
2023-05-05T16:01:12.940Z,70.63
2023-05-05T16:03:39.358Z,70.51
2023-05-05T16:06:06.120Z,70.27
2023-05-05T16:08:32.614Z,69.80
2023-05-05T16:10:59.059Z,69.99
2023-05-05T16:13:25.552Z,70.06
2023-05-05T16:15:52.047Z,70.00
2023-05-05T16:18:18.492Z,69.99
2023-05-05T16:20:45.159Z,70.15
2023-05-05T16:23:11.665Z,69.74
2023-05-05T16:25:38.122Z,69.88
2023-05-05T16:28:04.737Z,69.84
2023-05-05T16:30:31.153Z,69.81
2023-05-05T16:32:57.632Z,70.18
2023-05-05T16:35:24.014Z,70.32
2023-05-05T16:37:50.511Z,69.79
2023-05-05T16:40:16.917Z,69.59
2023-05-05T16:42:44.572Z,69.73
2023-05-05T16:45:11.542Z,69.68
2023-05-05T16:47:38.341Z,69.70
2023-05-05T16:50:05.438Z,69.94
2023-05-05T16:52:31.802Z,69.50
2023-05-05T16:54:58.222Z,69.11
2023-05-05T16:57:24.706Z,69.46
2023-05-05T16:59:51.177Z,69.96
2023-05-05T17:02:17.565Z,69.98
2023-05-05T17:04:44.026Z,69.96
2023-05-05T17:07:10.454Z,69.71
2023-05-05T17:09:37.359Z,69.88
2023-05-05T17:12:04.298Z,69.77
2023-05-05T17:14:31.029Z,69.59
2023-05-05T17:16:57.840Z,69.88
2023-05-05T17:19:24.332Z,69.79
2023-05-05T17:21:51.359Z,70.12
2023-05-05T17:24:17.802Z,69.46
2023-05-05T17:26:44.195Z,69.99
2023-05-05T17:29:12.944Z,69.64
2023-05-05T17:31:39.618Z,70.12
2023-05-05T17:34:05.989Z,70.00
2023-05-05T17:36:33.348Z,69.99
2023-05-05T17:38:59.806Z,70.20
2023-05-05T17:41:26.329Z,70.16
2023-05-05T17:43:52.968Z,70.07
2023-05-05T17:46:19.551Z,69.71
2023-05-05T17:48:46.134Z,69.59
2023-05-05T17:51:12.531Z,69.14
2023-05-05T17:53:39.341Z,69.67
2023-05-05T17:56:08.575Z,69.45
2023-05-05T17:58:35.364Z,69.55
2023-05-05T18:01:01.820Z,69.55
2023-05-05T18:03:28.535Z,69.35
2023-05-05T18:05:55.253Z,69.11
2023-05-05T18:08:22.240Z,68.77
2023-05-05T18:10:48.728Z,68.99
2023-05-05T18:13:15.261Z,68.97
2023-05-05T18:15:42.140Z,69.11
2023-05-05T18:18:08.603Z,69.24
2023-05-05T18:20:35.112Z,69.55
2023-05-05T18:23:01.810Z,68.90
2023-05-05T18:25:28.224Z,69.30
2023-05-05T18:27:54.608Z,69.76
2023-05-05T18:30:21.009Z,69.22
2023-05-05T18:32:48.635Z,69.54
2023-05-05T18:35:15.396Z,69.72
2023-05-05T18:37:42.271Z,69.73
2023-05-05T18:40:09.945Z,69.99
2023-05-05T18:42:36.304Z,69.94
2023-05-05T18:45:02.799Z,69.95
2023-05-05T18:47:29.215Z,70.14
2023-05-05T18:49:55.917Z,70.60
2023-05-05T18:52:22.815Z,70.89
2023-05-05T18:54:49.243Z,70.87
2023-05-05T18:57:15.691Z,70.95
2023-05-05T18:59:42.071Z,70.92
2023-05-05T19:02:08.508Z,71.10
2023-05-05T19:04:37.773Z,71.25
2023-05-05T19:07:04.819Z,70.90
2023-05-05T19:09:31.256Z,70.84
2023-05-05T19:11:57.633Z,71.34
2023-05-05T19:14:24.257Z,71.32
2023-05-05T19:16:50.943Z,71.44
2023-05-05T19:19:17.420Z,71.46
2023-05-05T19:21:43.927Z,71.64
2023-05-05T19:24:10.371Z,72.00
2023-05-05T19:26:36.922Z,72.01
2023-05-05T19:29:03.328Z,72.34
2023-05-05T19:31:31.078Z,72.37
2023-05-05T19:34:00.793Z,72.21
2023-05-05T19:36:27.806Z,72.40
2023-05-05T19:38:55.410Z,72.64
2023-05-05T19:41:21.824Z,72.68
2023-05-05T19:43:49.748Z,72.85
2023-05-05T19:46:17.047Z,73.31
2023-05-05T19:48:43.998Z,73.00
2023-05-05T19:51:10.418Z,73.56
2023-05-05T19:53:36.855Z,73.12
2023-05-05T19:56:04.756Z,73.42
2023-05-05T19:58:33.996Z,73.47
2023-05-05T20:01:00.450Z,73.22
2023-05-05T20:03:27.009Z,73.39
2023-05-05T20:05:53.468Z,73.67
2023-05-05T20:08:19.912Z,73.44
2023-05-05T20:10:46.326Z,73.50
2023-05-05T20:13:12.836Z,73.66
2023-05-05T20:15:39.414Z,73.80
2023-05-05T20:18:05.953Z,73.69
2023-05-05T20:20:32.478Z,73.81
2023-05-05T20:22:59.004Z,73.47
2023-05-05T20:25:25.526Z,73.66
2023-05-05T20:27:51.925Z,73.69
2023-05-05T20:30:18.342Z,73.68
2023-05-05T20:32:44.811Z,73.80
2023-05-05T20:35:12.652Z,74.09
2023-05-05T20:37:39.186Z,73.72
2023-05-05T20:40:06.525Z,74.23
2023-05-05T20:42:33.167Z,74.10
2023-05-05T20:45:00.892Z,74.17
2023-05-05T20:47:27.439Z,73.98
2023-05-05T20:49:54.161Z,73.70
2023-05-05T20:52:20.545Z,73.71
2023-05-05T20:54:47.008Z,74.06
2023-05-05T20:57:13.600Z,73.76
2023-05-05T20:59:40.047Z,73.99
2023-05-05T21:02:06.477Z,73.80
2023-05-05T21:04:33.008Z,73.73
2023-05-05T21:06:59.440Z,73.82
2023-05-05T21:09:25.990Z,73.60
2023-05-05T21:11:52.396Z,74.17
2023-05-05T21:14:18.823Z,74.07
2023-05-05T21:16:45.479Z,74.00
2023-05-05T21:19:11.984Z,74.07
2023-05-05T21:21:38.405Z,73.68
2023-05-05T21:24:07.658Z,73.97
2023-05-05T21:26:34.384Z,73.71
2023-05-05T21:29:00.820Z,74.05
2023-05-05T21:31:27.214Z,73.96
2023-05-05T21:33:54.149Z,74.45
2023-05-05T21:36:21.185Z,74.00
2023-05-05T21:38:47.712Z,74.19
2023-05-05T21:41:14.147Z,74.25
2023-05-05T21:43:41.047Z,74.36
2023-05-05T21:46:07.556Z,74.37
2023-05-05T21:48:34.014Z,74.78
2023-05-05T21:51:00.993Z,74.65
2023-05-05T21:53:27.412Z,74.43
2023-05-05T21:55:53.919Z,74.63
2023-05-05T21:58:20.406Z,74.49
2023-05-05T22:00:49.641Z,74.72
2023-05-05T22:03:16.297Z,74.81
2023-05-05T22:05:43.032Z,74.54
2023-05-05T22:08:09.463Z,74.79
2023-05-05T22:10:35.901Z,74.92
2023-05-05T22:13:02.342Z,74.81
2023-05-05T22:15:35.601Z,74.94
2023-05-05T22:18:06.516Z,74.97
2023-05-05T22:20:33.037Z,75.18
2023-05-05T22:22:59.437Z,74.99
2023-05-05T22:25:26.350Z,74.83
2023-05-05T22:27:52.816Z,75.36
2023-05-05T22:30:19.306Z,75.25
2023-05-05T22:32:46.306Z,75.45
2023-05-05T22:35:13.070Z,75.54
2023-05-05T22:37:40.021Z,75.34
2023-05-05T22:40:09.524Z,74.98
2023-05-05T22:42:36.251Z,74.84
2023-05-05T22:45:02.632Z,75.33
2023-05-05T22:47:29.225Z,75.29
2023-05-05T22:49:55.663Z,75.21
2023-05-05T22:52:22.064Z,75.30
2023-05-05T22:54:48.511Z,75.42
2023-05-05T22:57:14.930Z,75.39
2023-05-05T22:59:41.286Z,75.54
2023-05-05T23:02:07.830Z,75.95
2023-05-05T23:04:34.322Z,75.62
2023-05-05T23:07:01.095Z,75.88
2023-05-05T23:09:27.577Z,75.73
2023-05-05T23:11:54.045Z,76.00
2023-05-05T23:14:20.628Z,75.61
2023-05-05T23:16:47.086Z,75.54
2023-05-05T23:19:13.864Z,75.89
2023-05-05T23:21:51.960Z,75.73
2023-05-05T23:24:19.481Z,75.87
2023-05-05T23:26:45.886Z,75.83
2023-05-05T23:29:12.293Z,75.85
2023-05-05T23:31:38.690Z,75.92
2023-05-05T23:34:05.077Z,75.73
2023-05-05T23:36:31.494Z,75.70
2023-05-05T23:38:57.912Z,75.92
2023-05-05T23:41:24.305Z,75.86
2023-05-05T23:43:50.914Z,75.90
2023-05-05T23:46:17.305Z,75.78
2023-05-05T23:48:43.768Z,75.71
2023-05-05T23:51:10.194Z,75.52
2023-05-05T23:53:36.565Z,75.96
2023-05-05T23:56:03.214Z,76.22
2023-05-05T23:58:29.642Z,75.70
